Time,TemperatureF,DewpointF,PressureIn,WindDirection,WindDirectionDegrees,WindSpeedMPH,WindSpeedGustMPH,Humidity,HourlyPrecipIn,Conditions,Clouds,dailyrainin,SoftwareType,DateUTC
2013-01-30 00:03:00,42.1,41.3,29.97,East,88,0.0,0.0,97,0.00,,,0.00,Wunderground v.1.15,2013-01-30 05:03:00,
2013-01-30 00:06:00,42.1,41.3,29.97,East,86,0.0,0.0,97,0.00,,,0.00,Wunderground v.1.15,2013-01-30 05:06:00,
2013-01-30 00:07:00,42.1,41.3,29.97,East,86,0.0,0.0,97,0.00,,,0.00,Wunderground v.1.15,2013-01-30 05:07:00,
2013-01-30 00:10:00,42.2,41.4,29.97,East,86,0.0,0.0,97,0.00,,,0.00,Wunderground v.1.15,2013-01-30 05:10:00,
2013-01-30 00:16:00,42.3,41.5,29.97,East,86,0.0,0.0,97,0.00,,,0.00,Wunderground v.1.15,2013-01-30 05:16:00,
2013-01-30 00:21:00,42.4,41.6,29.97,East,86,0.0,0.0,97,0.00,,,0.00,Wunderground v.1.15,2013-01-30 05:21:00,
2013-01-30 00:27:00,42.4,41.6,29.97,East,86,0.0,0.0,97,0.00,,,0.00,Wunderground v.1.15,2013-01-30 05:27:00,
2013-01-30 00:33:00,42.4,41.6,29.96,East,86,0.0,0.0,97,0.00,,,0.00,Wunderground v.1.15,2013-01-30 05:33:00,
2013-01-30 00:39:00,42.5,41.7,29.95,ESE,118,0.0,0.0,97,0.00,,,0.00,Wunderground v.1.15,2013-01-30 05:39:00,
2013-01-30 00:44:00,42.7,41.9,29.95,SE,127,0.0,0.0,97,0.00,,,0.00,Wunderground v.1.15,2013-01-30 05:44:00,
2013-01-30 00:50:00,42.8,42.0,29.95,East,97,0.0,0.0,97,0.00,,,0.00,Wunderground v.1.15,2013-01-30 05:50:00,
2013-01-30 00:56:00,42.8,42.0,29.94,East,98,0.0,0.0,97,0.00,,,0.00,Wunderground v.1.15,2013-01-30 05:56:00,
2013-01-30 01:02:00,42.9,42.1,29.94,ESE,103,1.0,1.0,97,0.00,,,0.00,Wunderground v.1.15,2013-01-30 06:02:00,
2013-01-30 01:07:00,42.9,42.1,29.94,ESE,103,0.0,1.0,97,0.00,,,0.00,Wunderground v.1.15,2013-01-30 06:07:00,
2013-01-30 01:13:00,42.7,41.9,29.94,ESE,103,0.0,0.0,97,0.00,,,0.00,Wunderground v.1.15,2013-01-30 06:13:00,
2013-01-30 01:19:00,42.4,41.6,29.93,ESE,103,0.0,0.0,97,0.00,,,0.00,Wunderground v.1.15,2013-01-30 06:19:00,
2013-01-30 01:25:00,42.3,41.5,29.93,ESE,103,0.0,0.0,97,0.00,,,0.00,Wunderground v.1.15,2013-01-30 06:25:00,
2013-01-30 01:30:00,42.2,41.4,29.92,ESE,103,1.0,1.0,97,0.00,,,0.00,Wunderground v.1.15,2013-01-30 06:30:00,
2013-01-30 01:36:00,42.5,42.0,29.92,East,83,0.0,2.0,98,0.00,,,0.00,Wunderground v.1.15,2013-01-30 06:36:00,
2013-01-30 01:42:00,42.7,42.2,29.92,East,81,0.0,1.0,98,0.00,,,0.00,Wunderground v.1.15,2013-01-30 06:42:00,
2013-01-30 01:47:00,43.0,42.5,29.92,ESE,111,0.0,3.0,98,0.00,,,0.00,Wunderground v.1.15,2013-01-30 06:47:00,
2013-01-30 01:53:00,43.1,42.6,29.92,East,82,1.0,1.0,98,0.00,,,0.00,Wunderground v.1.15,2013-01-30 06:53:00,
2013-01-30 01:59:00,43.3,42.8,29.92,ESE,108,2.0,2.0,98,0.00,,,0.00,Wunderground v.1.15,2013-01-30 06:59:00,
2013-01-30 02:04:00,43.4,42.9,29.91,ESE,118,1.0,1.0,98,0.00,,,0.00,Wunderground v.1.15,2013-01-30 07:04:00,
2013-01-30 02:09:00,43.4,42.9,29.91,East,101,0.0,2.0,98,0.00,,,0.00,Wunderground v.1.15,2013-01-30 07:09:00,
2013-01-30 02:14:00,43.5,43.0,29.91,ESE,105,0.0,2.0,98,0.00,,,0.00,Wunderground v.1.15,2013-01-30 07:14:00,
2013-01-30 02:19:00,43.5,43.0,29.91,ESE,117,1.0,2.0,98,0.00,,,0.00,Wunderground v.1.15,2013-01-30 07:19:00,
2013-01-30 02:24:00,43.5,43.0,29.91,East,81,1.0,2.0,98,0.00,,,0.00,Wunderground v.1.15,2013-01-30 07:24:00,
2013-01-30 02:29:00,43.5,43.0,29.91,ESE,120,0.0,2.0,98,0.00,,,0.00,Wunderground v.1.15,2013-01-30 07:29:00,
2013-01-30 02:34:00,43.4,42.9,29.90,ESE,120,0.0,1.0,98,0.00,,,0.00,Wunderground v.1.15,2013-01-30 07:34:00,
2013-01-30 02:39:00,43.3,42.8,29.90,East,99,1.0,2.0,98,0.00,,,0.00,Wunderground v.1.15,2013-01-30 07:39:00,
2013-01-30 02:44:00,43.3,42.8,29.90,East,99,0.0,1.0,98,0.00,,,0.00,Wunderground v.1.15,2013-01-30 07:44:00,
2013-01-30 02:49:00,43.3,42.8,29.90,East,99,0.0,1.0,98,0.00,,,0.00,Wunderground v.1.15,2013-01-30 07:49:00,
2013-01-30 02:54:00,43.1,42.6,29.90,East,98,0.0,1.0,98,0.00,,,0.00,Wunderground v.1.15,2013-01-30 07:54:00,
2013-01-30 02:59:00,42.8,42.3,29.89,East,98,0.0,1.0,98,0.00,,,0.00,Wunderground v.1.15,2013-01-30 07:59:00,
2013-01-30 03:04:00,42.6,42.1,29.89,NE,49,0.0,0.0,98,0.00,,,0.00,Wunderground v.1.15,2013-01-30 08:04:00,
2013-01-30 03:09:00,42.6,42.1,29.89,NE,49,0.0,0.0,98,0.00,,,0.00,Wunderground v.1.15,2013-01-30 08:09:00,
2013-01-30 03:14:00,42.5,42.0,29.89,NE,49,0.0,0.0,98,0.00,,,0.00,Wunderground v.1.15,2013-01-30 08:14:00,
2013-01-30 03:19:00,42.5,42.0,29.89,NE,49,0.0,0.0,98,0.00,,,0.00,Wunderground v.1.15,2013-01-30 08:19:00,
2013-01-30 03:24:00,42.4,41.9,29.89,NE,49,0.0,0.0,98,0.00,,,0.00,Wunderground v.1.15,2013-01-30 08:24:00,
2013-01-30 03:29:00,42.4,41.9,29.88,NE,49,0.0,0.0,98,0.00,,,0.00,Wunderground v.1.15,2013-01-30 08:29:00,
2013-01-30 03:34:00,42.3,41.8,29.87,NE,51,0.0,0.0,98,0.00,,,0.00,Wunderground v.1.15,2013-01-30 08:34:00,
2013-01-30 03:39:00,42.3,41.8,29.86,NE,51,0.0,0.0,98,0.00,,,0.00,Wunderground v.1.15,2013-01-30 08:39:00,
2013-01-30 03:44:00,42.2,41.7,29.86,NE,51,0.0,0.0,98,0.00,,,0.00,Wunderground v.1.15,2013-01-30 08:44:00,
2013-01-30 03:49:00,42.2,41.7,29.85,NE,51,0.0,0.0,98,0.00,,,0.00,Wunderground v.1.15,2013-01-30 08:49:00,
2013-01-30 03:54:00,42.2,41.7,29.85,NE,51,0.0,0.0,98,0.00,,,0.00,Wunderground v.1.15,2013-01-30 08:54:00,
2013-01-30 03:59:00,42.2,41.7,29.85,NE,51,0.0,0.0,98,0.00,,,0.00,Wunderground v.1.15,2013-01-30 08:59:00,
2013-01-30 04:04:00,42.2,41.7,29.85,NE,51,0.0,0.0,98,0.00,,,0.00,Wunderground v.1.15,2013-01-30 09:04:00,
2013-01-30 04:09:00,42.2,41.7,29.85,NE,49,0.0,0.0,98,0.00,,,0.00,Wunderground v.1.15,2013-01-30 09:09:00,
2013-01-30 04:14:00,42.1,41.6,29.85,NE,49,0.0,0.0,98,0.00,,,0.00,Wunderground v.1.15,2013-01-30 09:14:00,
2013-01-30 04:19:00,42.0,41.5,29.85,NE,49,0.0,0.0,98,0.00,,,0.00,Wunderground v.1.15,2013-01-30 09:19:00,
2013-01-30 04:25:00,41.9,41.4,29.84,East,98,1.0,2.0,98,0.00,,,0.00,Wunderground v.1.15,2013-01-30 09:25:00,
2013-01-30 04:29:00,41.8,41.3,29.84,East,97,0.0,2.0,98,0.00,,,0.00,Wunderground v.1.15,2013-01-30 09:29:00,
2013-01-30 04:34:00,41.8,41.3,29.84,East,97,0.0,1.0,98,0.00,,,0.00,Wunderground v.1.15,2013-01-30 09:34:00,
2013-01-30 04:39:00,41.9,41.4,29.84,East,97,0.0,1.0,98,0.00,,,0.00,Wunderground v.1.15,2013-01-30 09:39:00,
2013-01-30 04:45:00,41.9,41.4,29.83,East,97,0.0,1.0,98,0.00,,,0.00,Wunderground v.1.15,2013-01-30 09:45:00,
2013-01-30 04:50:00,41.9,41.4,29.83,East,97,0.0,1.0,98,0.00,,,0.01,Wunderground v.1.15,2013-01-30 09:50:00,
2013-01-30 04:55:00,41.8,41.3,29.83,East,97,0.0,0.0,98,0.00,,,0.01,Wunderground v.1.15,2013-01-30 09:55:00,
2013-01-30 05:00:00,41.9,41.4,29.83,NE,41,0.0,1.0,98,0.00,,,0.01,Wunderground v.1.15,2013-01-30 10:00:00,
2013-01-30 05:05:00,41.8,41.3,29.83,NE,41,0.0,1.0,98,0.00,,,0.01,Wunderground v.1.15,2013-01-30 10:05:00,
2013-01-30 05:10:00,41.8,41.3,29.84,NE,53,0.0,2.0,98,0.00,,,0.01,Wunderground v.1.15,2013-01-30 10:10:00,
2013-01-30 05:15:00,41.7,41.2,29.83,NE,53,0.0,1.0,98,0.00,,,0.01,Wunderground v.1.15,2013-01-30 10:15:00,
2013-01-30 05:20:00,41.6,41.1,29.83,NE,53,0.0,1.0,98,0.00,,,0.01,Wunderground v.1.15,2013-01-30 10:20:00,
2013-01-30 05:25:00,41.7,41.2,29.83,NE,53,1.0,1.0,98,0.00,,,0.01,Wunderground v.1.15,2013-01-30 10:25:00,
2013-01-30 05:30:00,41.6,41.1,29.83,NE,53,0.0,1.0,98,0.00,,,0.01,Wunderground v.1.15,2013-01-30 10:30:00,
2013-01-30 05:35:00,41.6,41.1,29.83,NE,51,0.0,1.0,98,0.00,,,0.01,Wunderground v.1.15,2013-01-30 10:35:00,
2013-01-30 05:40:00,41.5,41.0,29.83,NE,51,0.0,1.0,98,0.00,,,0.01,Wunderground v.1.15,2013-01-30 10:40:00,
2013-01-30 05:45:00,41.5,41.0,29.83,NE,51,0.0,0.0,98,0.00,,,0.01,Wunderground v.1.15,2013-01-30 10:45:00,
2013-01-30 05:50:00,41.5,41.0,29.83,NE,51,0.0,1.0,98,0.00,,,0.01,Wunderground v.1.15,2013-01-30 10:50:00,
2013-01-30 05:55:00,41.5,41.0,29.83,NE,53,0.0,0.0,98,0.00,,,0.01,Wunderground v.1.15,2013-01-30 10:55:00,
2013-01-30 06:00:00,41.5,41.0,29.82,NE,51,0.0,0.0,98,0.00,,,0.01,Wunderground v.1.15,2013-01-30 11:00:00,
2013-01-30 06:05:00,41.4,40.9,29.82,NE,51,0.0,0.0,98,0.00,,,0.01,Wunderground v.1.15,2013-01-30 11:05:00,
2013-01-30 06:10:00,41.4,40.9,29.82,NE,51,0.0,0.0,98,0.00,,,0.01,Wunderground v.1.15,2013-01-30 11:10:00,
2013-01-30 06:15:00,41.5,41.0,29.82,NE,51,0.0,0.0,98,0.00,,,0.01,Wunderground v.1.15,2013-01-30 11:15:00,
2013-01-30 06:20:00,41.4,40.9,29.81,NE,53,0.0,0.0,98,0.00,,,0.01,Wunderground v.1.15,2013-01-30 11:20:00,
2013-01-30 06:25:00,41.4,40.9,29.81,NE,53,0.0,0.0,98,0.00,,,0.01,Wunderground v.1.15,2013-01-30 11:25:00,
2013-01-30 06:30:00,41.3,40.8,29.80,NE,53,0.0,0.0,98,0.00,,,0.01,Wunderground v.1.15,2013-01-30 11:30:00,
2013-01-30 06:35:00,41.4,40.9,29.80,NE,53,0.0,0.0,98,0.00,,,0.01,Wunderground v.1.15,2013-01-30 11:35:00,
2013-01-30 06:40:00,41.3,40.8,29.81,NE,53,0.0,0.0,98,0.00,,,0.01,Wunderground v.1.15,2013-01-30 11:40:00,
2013-01-30 06:45:00,41.3,40.8,29.80,NE,53,0.0,0.0,98,0.00,,,0.01,Wunderground v.1.15,2013-01-30 11:45:00,
2013-01-30 06:50:00,41.3,40.8,29.79,NE,53,0.0,0.0,98,0.00,,,0.01,Wunderground v.1.15,2013-01-30 11:50:00,
2013-01-30 06:55:00,41.3,40.8,29.79,NE,53,0.0,0.0,98,0.00,,,0.01,Wunderground v.1.15,2013-01-30 11:55:00,
2013-01-30 07:00:00,41.3,40.8,29.79,NE,53,0.0,0.0,98,0.00,,,0.01,Wunderground v.1.15,2013-01-30 12:00:00,
2013-01-30 07:05:00,41.3,40.8,29.79,NE,53,0.0,0.0,98,0.00,,,0.01,Wunderground v.1.15,2013-01-30 12:05:00,
2013-01-30 07:10:00,41.2,40.7,29.78,NE,53,0.0,0.0,98,0.00,,,0.01,Wunderground v.1.15,2013-01-30 12:10:00,
2013-01-30 07:15:00,41.1,40.6,29.78,NE,53,0.0,0.0,98,0.00,,,0.01,Wunderground v.1.15,2013-01-30 12:15:00,
2013-01-30 07:20:00,41.1,40.6,29.78,NE,53,0.0,0.0,98,0.00,,,0.01,Wunderground v.1.15,2013-01-30 12:20:00,
2013-01-30 07:25:00,41.0,40.5,29.78,NE,53,0.0,0.0,98,0.00,,,0.01,Wunderground v.1.15,2013-01-30 12:25:00,
2013-01-30 07:30:00,41.1,40.6,29.78,NE,53,0.0,0.0,98,0.00,,,0.01,Wunderground v.1.15,2013-01-30 12:30:00,
2013-01-30 07:35:00,41.1,40.8,29.78,NE,53,0.0,0.0,99,0.00,,,0.01,Wunderground v.1.15,2013-01-30 12:35:00,
2013-01-30 07:40:00,41.2,40.9,29.78,NE,53,0.0,0.0,99,0.00,,,0.01,Wunderground v.1.15,2013-01-30 12:40:00,
2013-01-30 07:45:00,41.3,41.0,29.77,NE,53,0.0,0.0,99,0.00,,,0.01,Wunderground v.1.15,2013-01-30 12:45:00,
2013-01-30 07:50:00,41.3,41.0,29.77,NE,53,0.0,0.0,99,0.00,,,0.01,Wunderground v.1.15,2013-01-30 12:50:00,
2013-01-30 07:55:00,41.4,41.1,29.77,NE,53,0.0,0.0,99,0.00,,,0.01,Wunderground v.1.15,2013-01-30 12:55:00,
2013-01-30 08:00:00,41.5,41.2,29.77,NE,53,0.0,0.0,99,0.00,,,0.01,Wunderground v.1.15,2013-01-30 13:00:00,
2013-01-30 08:05:00,41.5,41.2,29.77,NE,53,0.0,0.0,99,0.00,,,0.01,Wunderground v.1.15,2013-01-30 13:05:00,
2013-01-30 08:10:00,41.6,41.3,29.76,NE,53,0.0,0.0,99,0.00,,,0.01,Wunderground v.1.15,2013-01-30 13:10:00,
2013-01-30 08:15:00,41.6,41.3,29.76,NE,53,0.0,0.0,99,0.00,,,0.01,Wunderground v.1.15,2013-01-30 13:15:00,
2013-01-30 08:20:00,41.8,41.5,29.76,NE,51,1.0,1.0,99,0.00,,,0.01,Wunderground v.1.15,2013-01-30 13:20:00,
2013-01-30 08:25:00,41.9,41.6,29.76,NE,51,1.0,1.0,99,0.00,,,0.01,Wunderground v.1.15,2013-01-30 13:25:00,
2013-01-30 08:30:00,42.0,41.7,29.75,NE,51,0.0,2.0,99,0.00,,,0.01,Wunderground v.1.15,2013-01-30 13:30:00,
2013-01-30 08:35:00,42.0,41.7,29.75,NNE,15,0.0,2.0,99,0.00,,,0.01,Wunderground v.1.15,2013-01-30 13:35:00,
2013-01-30 08:40:00,42.0,41.7,29.75,NNW,344,1.0,2.0,99,0.00,,,0.01,Wunderground v.1.15,2013-01-30 13:40:00,
2013-01-30 08:45:00,42.1,41.8,29.75,NNE,18,0.0,3.0,99,0.00,,,0.01,Wunderground v.1.15,2013-01-30 13:45:00,
2013-01-30 08:50:00,42.4,42.1,29.75,NE,39,1.0,3.0,99,0.00,,,0.01,Wunderground v.1.15,2013-01-30 13:50:00,
2013-01-30 08:55:00,42.7,42.4,29.74,North,352,0.0,2.0,99,0.00,,,0.01,Wunderground v.1.15,2013-01-30 13:55:00,
2013-01-30 09:00:00,42.9,42.6,29.74,NE,39,2.0,2.0,99,0.00,,,0.01,Wunderground v.1.15,2013-01-30 14:00:00,
2013-01-30 09:05:00,43.1,42.8,29.74,NNE,18,1.0,2.0,99,0.00,,,0.01,Wunderground v.1.15,2013-01-30 14:05:00,
2013-01-30 09:10:00,43.3,43.0,29.74,East,80,1.0,1.0,99,0.00,,,0.01,Wunderground v.1.15,2013-01-30 14:10:00,
2013-01-30 09:15:00,43.5,43.2,29.74,ENE,65,0.0,1.0,99,0.00,,,0.01,Wunderground v.1.15,2013-01-30 14:15:00,
2013-01-30 09:20:00,43.7,43.4,29.73,East,98,1.0,2.0,99,0.00,,,0.01,Wunderground v.1.15,2013-01-30 14:20:00,
2013-01-30 09:25:00,43.9,43.6,29.73,East,96,1.0,2.0,99,0.00,,,0.01,Wunderground v.1.15,2013-01-30 14:25:00,
2013-01-30 09:30:00,44.3,44.0,29.73,NE,40,0.0,1.0,99,0.00,,,0.01,Wunderground v.1.15,2013-01-30 14:30:00,
2013-01-30 09:35:00,44.3,44.0,29.73,NE,40,1.0,1.0,99,0.00,,,0.01,Wunderground v.1.15,2013-01-30 14:35:00,
2013-01-30 09:40:00,44.3,44.0,29.72,ENE,74,1.0,2.0,99,0.00,,,0.01,Wunderground v.1.15,2013-01-30 14:40:00,
2013-01-30 09:45:00,44.4,44.1,29.72,ESE,110,0.0,3.0,99,0.00,,,0.01,Wunderground v.1.15,2013-01-30 14:45:00,
2013-01-30 09:50:00,44.7,44.4,29.72,ESE,110,0.0,1.0,99,0.00,,,0.01,Wunderground v.1.15,2013-01-30 14:50:00,
2013-01-30 09:55:00,45.0,44.7,29.72,ESE,110,0.0,1.0,99,0.00,,,0.01,Wunderground v.1.15,2013-01-30 14:55:00,
2013-01-30 10:00:00,45.3,45.0,29.72,ESE,110,0.0,1.0,99,0.00,,,0.01,Wunderground v.1.15,2013-01-30 15:00:00,
2013-01-30 10:05:00,45.8,45.5,29.71,East,89,1.0,2.0,99,0.00,,,0.01,Wunderground v.1.15,2013-01-30 15:05:00,
2013-01-30 10:10:00,46.0,45.7,29.71,East,98,2.0,2.0,99,0.00,,,0.01,Wunderground v.1.15,2013-01-30 15:10:00,
2013-01-30 10:15:00,46.3,46.0,29.70,East,98,0.0,2.0,99,0.00,,,0.01,Wunderground v.1.15,2013-01-30 15:15:00,
2013-01-30 10:20:00,46.8,46.5,29.70,ESE,115,0.0,1.0,99,0.00,,,0.01,Wunderground v.1.15,2013-01-30 15:20:00,
2013-01-30 10:25:00,47.3,47.0,29.69,East,84,0.0,2.0,99,0.00,,,0.01,Wunderground v.1.15,2013-01-30 15:25:00,
2013-01-30 10:30:00,47.9,47.6,29.69,North,352,1.0,2.0,99,0.00,,,0.01,Wunderground v.1.15,2013-01-30 15:30:00,
2013-01-30 10:35:00,48.2,47.9,29.69,NNE,20,2.0,2.0,99,0.00,,,0.01,Wunderground v.1.15,2013-01-30 15:35:00,
2013-01-30 10:40:00,48.3,48.0,29.69,ENE,76,0.0,1.0,99,0.00,,,0.01,Wunderground v.1.15,2013-01-30 15:40:00,
2013-01-30 10:45:00,48.3,48.0,29.68,ENE,76,0.0,1.0,99,0.00,,,0.01,Wunderground v.1.15,2013-01-30 15:45:00,
2013-01-30 10:50:00,48.9,48.6,29.68,NNE,18,0.0,1.0,99,0.00,,,0.01,Wunderground v.1.15,2013-01-30 15:50:00,
2013-01-30 10:55:00,49.3,49.0,29.68,ENE,61,0.0,1.0,99,0.00,,,0.01,Wunderground v.1.15,2013-01-30 15:55:00,
2013-01-30 11:01:00,49.3,49.0,29.68,North,9,1.0,2.0,99,0.00,,,0.01,Wunderground v.1.15,2013-01-30 16:01:00,
2013-01-30 11:06:00,49.5,49.2,29.68,NNE,20,0.0,2.0,99,0.00,,,0.01,Wunderground v.1.15,2013-01-30 16:06:00,
2013-01-30 11:11:00,49.5,49.2,29.67,NNE,20,1.0,1.0,99,0.00,,,0.01,Wunderground v.1.15,2013-01-30 16:11:00,
2013-01-30 11:16:00,49.5,49.2,29.67,NNE,20,0.0,1.0,99,0.00,,,0.01,Wunderground v.1.15,2013-01-30 16:16:00,
2013-01-30 11:21:00,49.7,49.4,29.67,NNW,347,1.0,2.0,99,0.00,,,0.01,Wunderground v.1.15,2013-01-30 16:21:00,
2013-01-30 11:26:00,49.7,49.4,29.66,NE,50,1.0,2.0,99,0.00,,,0.01,Wunderground v.1.15,2013-01-30 16:26:00,
2013-01-30 11:31:00,49.8,49.5,29.66,NE,50,0.0,1.0,99,0.00,,,0.01,Wunderground v.1.15,2013-01-30 16:31:00,
2013-01-30 11:36:00,49.9,49.6,29.65,SE,132,1.0,2.0,99,0.00,,,0.01,Wunderground v.1.15,2013-01-30 16:36:00,
2013-01-30 11:41:00,50.2,49.9,29.65,SE,132,1.0,1.0,99,0.00,,,0.01,Wunderground v.1.15,2013-01-30 16:41:00,
2013-01-30 11:46:00,50.6,50.3,29.64,SSE,149,0.0,1.0,99,0.00,,,0.01,Wunderground v.1.15,2013-01-30 16:46:00,
2013-01-30 11:51:00,51.1,50.8,29.63,SSE,150,0.0,0.0,99,0.00,,,0.01,Wunderground v.1.15,2013-01-30 16:51:00,
2013-01-30 11:56:00,51.6,51.3,29.62,East,84,1.0,1.0,99,0.00,,,0.01,Wunderground v.1.15,2013-01-30 16:56:00,
2013-01-30 12:01:00,52.1,51.8,29.62,ENE,57,0.0,1.0,99,0.00,,,0.01,Wunderground v.1.15,2013-01-30 17:01:00,
2013-01-30 12:06:00,52.4,52.1,29.62,ENE,57,0.0,1.0,99,0.00,,,0.01,Wunderground v.1.15,2013-01-30 17:06:00,
2013-01-30 12:11:00,52.5,52.0,29.62,ENE,57,1.0,1.0,98,0.00,,,0.01,Wunderground v.1.15,2013-01-30 17:11:00,
2013-01-30 12:16:00,52.5,52.0,29.61,East,90,0.0,2.0,98,0.00,,,0.01,Wunderground v.1.15,2013-01-30 17:16:00,
2013-01-30 12:21:00,53.0,52.5,29.61,NNW,331,0.0,1.0,98,0.00,,,0.01,Wunderground v.1.15,2013-01-30 17:21:00,
2013-01-30 12:26:00,55.4,55.1,29.60,South,181,3.0,8.0,99,0.00,,,0.01,Wunderground v.1.15,2013-01-30 17:26:00,
2013-01-30 12:31:00,58.7,58.7,29.60,WSW,256,9.0,9.0,100,0.00,,,0.01,Wunderground v.1.15,2013-01-30 17:31:00,
2013-01-30 12:36:00,59.8,59.8,29.60,West,277,2.0,12.0,100,0.00,,,0.01,Wunderground v.1.15,2013-01-30 17:36:00,
2013-01-30 12:41:00,60.9,60.3,29.60,SW,221,4.0,7.0,98,0.00,,,0.01,Wunderground v.1.15,2013-01-30 17:41:00,
2013-01-30 12:46:00,61.8,59.8,29.58,WSW,242,6.0,11.0,93,0.00,,,0.01,Wunderground v.1.15,2013-01-30 17:46:00,
2013-01-30 12:51:00,62.4,59.7,29.58,West,267,4.0,13.0,91,0.00,,,0.01,Wunderground v.1.15,2013-01-30 17:51:00,
2013-01-30 12:56:00,62.7,59.4,29.58,SSE,156,2.0,13.0,89,0.00,,,0.01,Wunderground v.1.15,2013-01-30 17:56:00,
2013-01-30 13:01:00,63.0,59.4,29.57,WSW,249,7.0,11.0,88,0.00,,,0.01,Wunderground v.1.15,2013-01-30 18:01:00,
2013-01-30 13:06:00,63.3,59.7,29.57,WSW,240,7.0,11.0,88,0.00,,,0.01,Wunderground v.1.15,2013-01-30 18:06:00,
2013-01-30 13:11:00,63.5,59.6,29.57,SW,236,5.0,7.0,87,0.00,,,0.01,Wunderground v.1.15,2013-01-30 18:11:00,
2013-01-30 13:16:00,63.6,59.7,29.56,SW,222,6.0,9.0,87,0.00,,,0.01,Wunderground v.1.15,2013-01-30 18:16:00,
2013-01-30 13:21:00,63.7,59.4,29.56,SW,236,12.0,12.0,86,0.00,,,0.01,Wunderground v.1.15,2013-01-30 18:21:00,
2013-01-30 13:26:00,63.8,59.5,29.55,SW,231,4.0,13.0,86,0.00,,,0.01,Wunderground v.1.15,2013-01-30 18:26:00,
2013-01-30 13:31:00,64.0,59.7,29.54,WNW,292,7.0,7.0,86,0.00,,,0.01,Wunderground v.1.15,2013-01-30 18:31:00,
2013-01-30 13:36:00,64.2,59.9,29.54,West,266,6.0,12.0,86,0.00,,,0.01,Wunderground v.1.15,2013-01-30 18:36:00,
2013-01-30 13:41:00,64.3,59.7,29.53,West,259,5.0,10.0,85,0.00,,,0.01,Wunderground v.1.15,2013-01-30 18:41:00,
2013-01-30 13:46:00,64.5,59.9,29.53,West,281,6.0,10.0,85,0.00,,,0.01,Wunderground v.1.15,2013-01-30 18:46:00,
2013-01-30 13:51:00,64.6,59.7,29.53,West,260,2.0,4.0,84,0.00,,,0.01,Wunderground v.1.15,2013-01-30 18:51:00,
2013-01-30 13:56:00,64.7,59.8,29.52,SSW,195,6.0,13.0,84,0.00,,,0.01,Wunderground v.1.15,2013-01-30 18:56:00,
2013-01-30 14:01:00,64.9,59.9,29.52,South,176,5.0,6.0,84,0.00,,,0.01,Wunderground v.1.15,2013-01-30 19:01:00,
2013-01-30 14:06:00,65.2,60.2,29.52,SSE,168,6.0,12.0,84,0.00,,,0.01,Wunderground v.1.15,2013-01-30 19:06:00,
2013-01-30 14:11:00,65.4,60.4,29.52,West,278,8.0,17.0,84,0.00,,,0.01,Wunderground v.1.15,2013-01-30 19:11:00,
2013-01-30 14:16:00,65.6,60.3,29.51,WNW,290,6.0,17.0,83,0.00,,,0.01,Wunderground v.1.15,2013-01-30 19:16:00,
2013-01-30 14:21:00,65.7,60.4,29.51,SSW,198,2.0,6.0,83,0.00,,,0.01,Wunderground v.1.15,2013-01-30 19:21:00,
2013-01-30 14:26:00,65.7,60.4,29.50,SW,225,3.0,6.0,83,0.00,,,0.01,Wunderground v.1.15,2013-01-30 19:26:00,
2013-01-30 14:31:00,65.7,60.4,29.50,SW,233,6.0,8.0,83,0.00,,,0.01,Wunderground v.1.15,2013-01-30 19:31:00,
2013-01-30 14:36:00,65.7,60.4,29.50,WNW,294,6.0,16.0,83,0.00,,,0.01,Wunderground v.1.15,2013-01-30 19:36:00,
2013-01-30 14:41:00,65.9,60.6,29.50,West,281,1.0,5.0,83,0.00,,,0.01,Wunderground v.1.15,2013-01-30 19:41:00,
2013-01-30 14:46:00,66.3,61.0,29.50,NW,323,2.0,14.0,83,0.00,,,0.01,Wunderground v.1.15,2013-01-30 19:46:00,
2013-01-30 14:51:00,66.6,60.9,29.50,NW,319,5.0,16.0,82,0.00,,,0.01,Wunderground v.1.15,2013-01-30 19:51:00,
2013-01-30 14:56:00,66.7,61.0,29.50,WSW,257,11.0,16.0,82,0.00,,,0.01,Wunderground v.1.15,2013-01-30 19:56:00,
2013-01-30 15:01:00,66.7,60.7,29.50,West,276,18.0,19.0,81,0.00,,,0.01,Wunderground v.1.15,2013-01-30 20:01:00,
2013-01-30 15:06:00,66.7,60.7,29.49,SW,221,7.0,19.0,81,0.00,,,0.01,Wunderground v.1.15,2013-01-30 20:06:00,
2013-01-30 15:11:00,66.8,60.8,29.50,SW,221,6.0,14.0,81,0.00,,,0.01,Wunderground v.1.15,2013-01-30 20:11:00,
2013-01-30 15:16:00,66.8,60.8,29.50,WNW,292,6.0,14.0,81,0.00,,,0.01,Wunderground v.1.15,2013-01-30 20:16:00,
2013-01-30 15:21:00,66.8,60.8,29.50,SSE,164,6.0,14.0,81,0.00,,,0.01,Wunderground v.1.15,2013-01-30 20:21:00,
2013-01-30 15:26:00,66.7,60.7,29.50,West,279,13.0,15.0,81,0.00,,,0.01,Wunderground v.1.15,2013-01-30 20:26:00,
2013-01-30 15:31:00,66.8,60.8,29.50,SSW,210,8.0,12.0,81,0.00,,,0.01,Wunderground v.1.15,2013-01-30 20:31:00,
2013-01-30 15:36:00,66.8,60.8,29.49,WSW,245,7.0,14.0,81,0.00,,,0.01,Wunderground v.1.15,2013-01-30 20:36:00,
2013-01-30 15:41:00,66.9,60.5,29.49,SSW,210,7.0,16.0,80,0.00,,,0.01,Wunderground v.1.15,2013-01-30 20:41:00,
2013-01-30 15:46:00,67.1,60.7,29.48,West,274,7.0,17.0,80,0.00,,,0.01,Wunderground v.1.15,2013-01-30 20:46:00,
2013-01-30 15:51:00,67.6,60.9,29.48,West,264,9.0,13.0,79,0.00,,,0.01,Wunderground v.1.15,2013-01-30 20:51:00,
2013-01-30 15:56:00,67.8,60.7,29.48,WNW,284,7.0,18.0,78,0.00,,,0.01,Wunderground v.1.15,2013-01-30 20:56:00,
2013-01-30 16:01:00,67.7,60.6,29.48,SSW,203,9.0,14.0,78,0.00,,,0.01,Wunderground v.1.15,2013-01-30 21:01:00,
2013-01-30 16:06:00,67.7,60.6,29.47,South,170,5.0,14.0,78,0.00,,,0.01,Wunderground v.1.15,2013-01-30 21:06:00,
2013-01-30 16:11:00,67.6,60.5,29.47,WSW,257,7.0,17.0,78,0.00,,,0.01,Wunderground v.1.15,2013-01-30 21:11:00,
2013-01-30 16:16:00,67.5,60.4,29.46,West,276,9.0,17.0,78,0.00,,,0.01,Wunderground v.1.15,2013-01-30 21:16:00,
2013-01-30 16:21:00,67.5,60.4,29.46,South,180,19.0,19.0,78,0.00,,,0.01,Wunderground v.1.15,2013-01-30 21:21:00,
2013-01-30 16:26:00,67.5,60.4,29.46,East,98,1.0,21.0,78,0.00,,,0.01,Wunderground v.1.15,2013-01-30 21:26:00,
2013-01-30 16:31:00,67.3,60.2,29.47,WNW,288,7.0,10.0,78,0.00,,,0.01,Wunderground v.1.15,2013-01-30 21:31:00,
2013-01-30 16:36:00,67.4,60.3,29.47,West,278,6.0,18.0,78,0.00,,,0.01,Wunderground v.1.15,2013-01-30 21:36:00,
2013-01-30 16:41:00,67.4,60.3,29.47,SW,225,6.0,17.0,78,0.00,,,0.01,Wunderground v.1.15,2013-01-30 21:41:00,
2013-01-30 16:46:00,67.5,60.4,29.47,WSW,247,3.0,22.0,78,0.00,,,0.01,Wunderground v.1.15,2013-01-30 21:46:00,
2013-01-30 16:51:00,67.5,60.4,29.47,WSW,238,6.0,8.0,78,0.00,,,0.01,Wunderground v.1.15,2013-01-30 21:51:00,
2013-01-30 16:56:00,67.4,60.3,29.46,SSW,211,4.0,11.0,78,0.00,,,0.01,Wunderground v.1.15,2013-01-30 21:56:00,
2013-01-30 17:01:00,67.4,60.3,29.46,SSW,204,9.0,13.0,78,0.00,,,0.01,Wunderground v.1.15,2013-01-30 22:01:00,
2013-01-30 17:06:00,67.5,60.0,29.46,North,8,4.0,13.0,77,0.00,,,0.01,Wunderground v.1.15,2013-01-30 22:06:00,
2013-01-30 17:11:00,67.5,60.0,29.45,SW,231,12.0,13.0,77,0.00,,,0.01,Wunderground v.1.15,2013-01-30 22:11:00,
2013-01-30 17:16:00,67.5,60.0,29.45,SW,221,10.0,16.0,77,0.00,,,0.01,Wunderground v.1.15,2013-01-30 22:16:00,
2013-01-30 17:21:00,67.4,59.9,29.45,SW,225,4.0,7.0,77,0.00,,,0.01,Wunderground v.1.15,2013-01-30 22:21:00,
2013-01-30 17:26:00,67.2,59.7,29.46,SW,218,6.0,15.0,77,0.00,,,0.01,Wunderground v.1.15,2013-01-30 22:26:00,
2013-01-30 17:31:00,66.9,59.8,29.46,NNW,338,2.0,5.0,78,0.00,,,0.01,Wunderground v.1.15,2013-01-30 22:31:00,
2013-01-30 17:36:00,66.5,59.4,29.46,West,269,13.0,13.0,78,0.00,,,0.01,Wunderground v.1.15,2013-01-30 22:36:00,
2013-01-30 17:41:00,66.1,59.0,29.46,WNW,282,3.0,11.0,78,0.00,,,0.01,Wunderground v.1.15,2013-01-30 22:41:00,
2013-01-30 17:46:00,65.8,58.7,29.46,West,280,5.0,15.0,78,0.00,,,0.01,Wunderground v.1.15,2013-01-30 22:46:00,
2013-01-30 17:51:00,65.5,58.8,29.47,West,271,6.0,10.0,79,0.00,,,0.01,Wunderground v.1.15,2013-01-30 22:51:00,
2013-01-30 17:56:00,65.3,58.6,29.47,SSW,211,12.0,12.0,79,0.00,,,0.01,Wunderground v.1.15,2013-01-30 22:56:00,
2013-01-30 18:01:00,64.9,58.6,29.47,SW,225,3.0,8.0,80,0.00,,,0.01,Wunderground v.1.15,2013-01-30 23:01:00,
2013-01-30 18:06:00,64.2,58.6,29.47,WNW,285,9.0,15.0,82,0.00,,,0.01,Wunderground v.1.15,2013-01-30 23:06:00,
2013-01-30 18:11:00,63.7,58.8,29.48,WNW,295,3.0,10.0,84,0.00,,,0.01,Wunderground v.1.15,2013-01-30 23:11:00,
2013-01-30 18:17:00,63.3,58.7,29.48,SSE,152,1.0,13.0,85,0.00,,,0.01,Wunderground v.1.15,2013-01-30 23:17:00,
2013-01-30 18:22:00,63.0,58.4,29.47,WNW,286,3.0,5.0,85,0.00,,,0.01,Wunderground v.1.15,2013-01-30 23:22:00,
2013-01-30 18:27:00,62.8,58.5,29.47,WSW,250,5.0,13.0,86,0.00,,,0.01,Wunderground v.1.15,2013-01-30 23:27:00,
2013-01-30 18:32:00,62.6,58.4,29.48,West,264,3.0,6.0,86,0.00,,,0.01,Wunderground v.1.15,2013-01-30 23:32:00,
2013-01-30 18:37:00,62.5,58.3,29.48,NW,323,2.0,6.0,86,0.00,,,0.01,Wunderground v.1.15,2013-01-30 23:37:00,
2013-01-30 18:42:00,62.1,58.2,29.47,WNW,290,2.0,3.0,87,0.00,,,0.01,Wunderground v.1.15,2013-01-30 23:42:00,
2013-01-30 18:47:00,61.7,58.4,29.47,WNW,296,1.0,3.0,89,0.00,,,0.01,Wunderground v.1.15,2013-01-30 23:47:00,
2013-01-30 18:52:00,61.4,58.4,29.47,NW,307,1.0,2.0,90,0.00,,,0.01,Wunderground v.1.15,2013-01-30 23:52:00,
2013-01-30 18:57:00,61.1,58.1,29.47,WNW,287,1.0,2.0,90,0.00,,,0.01,Wunderground v.1.15,2013-01-30 23:57:00,
2013-01-30 19:01:00,61.0,58.4,29.47,West,278,0.0,1.0,91,0.00,,,0.01,Wunderground v.1.15,2013-01-31 00:01:00,
2013-01-30 19:06:00,60.8,58.5,29.46,West,274,1.0,1.0,92,0.00,,,0.01,Wunderground v.1.15,2013-01-31 00:06:00,
2013-01-30 19:11:00,60.5,58.2,29.46,West,274,0.0,0.0,92,0.00,,,0.01,Wunderground v.1.15,2013-01-31 00:11:00,
2013-01-30 19:16:00,60.3,58.0,29.46,West,274,1.0,1.0,92,0.00,,,0.02,Wunderground v.1.15,2013-01-31 00:16:00,
2013-01-30 19:21:00,60.0,58.0,29.46,West,274,0.0,1.0,93,0.00,,,0.02,Wunderground v.1.15,2013-01-31 00:21:00,
2013-01-30 19:26:00,59.8,57.8,29.45,West,274,0.0,1.0,93,0.00,,,0.02,Wunderground v.1.15,2013-01-31 00:26:00,
2013-01-30 19:31:00,59.6,57.9,29.45,West,269,0.0,0.0,94,0.00,,,0.02,Wunderground v.1.15,2013-01-31 00:31:00,
2013-01-30 19:37:00,59.4,57.7,29.45,West,269,0.0,1.0,94,0.00,,,0.02,Wunderground v.1.15,2013-01-31 00:37:00,
2013-01-30 19:42:00,59.3,57.6,29.45,West,269,1.0,1.0,94,0.00,,,0.02,Wunderground v.1.15,2013-01-31 00:42:00,
2013-01-30 19:47:00,59.3,57.9,29.44,West,269,0.0,1.0,95,0.00,,,0.02,Wunderground v.1.15,2013-01-31 00:47:00,
2013-01-30 19:52:00,59.2,57.8,29.44,West,269,0.0,0.0,95,0.00,,,0.02,Wunderground v.1.15,2013-01-31 00:52:00,
2013-01-30 19:57:00,59.0,57.6,29.43,West,269,0.0,0.0,95,0.00,,,0.02,Wunderground v.1.15,2013-01-31 00:57:00,
2013-01-30 20:02:00,58.9,57.5,29.43,West,269,0.0,0.0,95,0.00,,,0.02,Wunderground v.1.15,2013-01-31 01:02:00,
2013-01-30 20:07:00,58.8,57.4,29.43,SW,218,0.0,2.0,95,0.00,,,0.02,Wunderground v.1.15,2013-01-31 01:07:00,
2013-01-30 20:12:00,59.1,57.7,29.42,SSW,198,1.0,1.0,95,0.00,,,0.02,Wunderground v.1.15,2013-01-31 01:12:00,
2013-01-30 20:17:00,59.3,57.9,29.42,South,178,0.0,2.0,95,0.00,,,0.02,Wunderground v.1.15,2013-01-31 01:17:00,
2013-01-30 20:22:00,59.5,57.8,29.41,SSE,165,1.0,1.0,94,0.00,,,0.02,Wunderground v.1.15,2013-01-31 01:22:00,
2013-01-30 20:27:00,59.7,58.0,29.41,SSW,205,0.0,2.0,94,0.00,,,0.02,Wunderground v.1.15,2013-01-31 01:27:00,
2013-01-30 20:32:00,59.9,57.9,29.41,SW,231,1.0,2.0,93,0.00,,,0.02,Wunderground v.1.15,2013-01-31 01:32:00,
2013-01-30 20:37:00,60.0,58.0,29.40,SSE,165,0.0,3.0,93,0.00,,,0.02,Wunderground v.1.15,2013-01-31 01:37:00,
2013-01-30 20:42:00,60.1,57.8,29.40,SSW,211,1.0,2.0,92,0.00,,,0.02,Wunderground v.1.15,2013-01-31 01:42:00,
2013-01-30 20:47:00,60.3,58.0,29.40,South,172,1.0,4.0,92,0.00,,,0.02,Wunderground v.1.15,2013-01-31 01:47:00,
2013-01-30 20:52:00,60.4,57.8,29.40,SSE,161,2.0,6.0,91,0.00,,,0.02,Wunderground v.1.15,2013-01-31 01:52:00,
2013-01-30 20:57:00,60.5,57.9,29.39,SSE,165,2.0,6.0,91,0.00,,,0.02,Wunderground v.1.15,2013-01-31 01:57:00,
2013-01-30 21:02:00,60.7,57.7,29.38,SW,221,2.0,2.0,90,0.00,,,0.02,Wunderground v.1.15,2013-01-31 02:02:00,
2013-01-30 21:07:00,60.8,57.8,29.38,SSW,212,5.0,5.0,90,0.00,,,0.02,Wunderground v.1.15,2013-01-31 02:07:00,
2013-01-30 21:12:00,60.8,57.8,29.38,SW,214,3.0,6.0,90,0.00,,,0.02,Wunderground v.1.15,2013-01-31 02:12:00,
2013-01-30 21:17:00,60.9,57.9,29.38,SW,216,4.0,6.0,90,0.00,,,0.02,Wunderground v.1.15,2013-01-31 02:17:00,
2013-01-30 21:22:00,61.0,57.7,29.37,SSW,201,1.0,3.0,89,0.00,,,0.02,Wunderground v.1.15,2013-01-31 02:22:00,
2013-01-30 21:27:00,61.0,57.7,29.37,WSW,252,4.0,6.0,89,0.00,,,0.02,Wunderground v.1.15,2013-01-31 02:27:00,
2013-01-30 21:32:00,61.0,57.7,29.36,SW,229,4.0,4.0,89,0.00,,,0.02,Wunderground v.1.15,2013-01-31 02:32:00,
2013-01-30 21:37:00,60.9,57.6,29.35,SW,217,3.0,4.0,89,0.00,,,0.02,Wunderground v.1.15,2013-01-31 02:37:00,
2013-01-30 21:42:00,60.9,57.6,29.35,SW,215,4.0,5.0,89,0.00,,,0.02,Wunderground v.1.15,2013-01-31 02:42:00,
2013-01-30 21:47:00,60.9,57.6,29.35,WSW,238,5.0,10.0,89,0.00,,,0.02,Wunderground v.1.15,2013-01-31 02:47:00,
2013-01-30 21:52:00,61.0,58.0,29.34,WSW,238,4.0,12.0,90,0.00,,,0.02,Wunderground v.1.15,2013-01-31 02:52:00,
2013-01-30 21:57:00,61.1,57.8,29.33,WSW,256,3.0,12.0,89,0.00,,,0.02,Wunderground v.1.15,2013-01-31 02:57:00,
2013-01-30 22:02:00,61.2,57.9,29.32,WSW,256,2.0,7.0,89,0.00,,,0.02,Wunderground v.1.15,2013-01-31 03:02:00,
2013-01-30 22:07:00,61.4,58.4,29.32,SSW,195,7.0,19.0,90,0.00,,,0.02,Wunderground v.1.15,2013-01-31 03:07:00,
2013-01-30 22:12:00,61.5,58.2,29.32,South,173,8.0,11.0,89,0.00,,,0.02,Wunderground v.1.15,2013-01-31 03:12:00,
2013-01-30 22:17:00,61.6,58.3,29.32,WSW,237,9.0,16.0,89,0.00,,,0.02,Wunderground v.1.15,2013-01-31 03:17:00,
2013-01-30 22:22:00,61.6,58.3,29.31,SSW,201,7.0,10.0,89,0.00,,,0.02,Wunderground v.1.15,2013-01-31 03:22:00,
2013-01-30 22:27:00,61.7,58.4,29.30,NNW,327,3.0,13.0,89,0.00,,,0.02,Wunderground v.1.15,2013-01-31 03:27:00,
2013-01-30 22:32:00,61.8,58.5,29.31,SSW,195,2.0,11.0,89,0.00,,,0.02,Wunderground v.1.15,2013-01-31 03:32:00,
2013-01-30 22:37:00,61.9,58.6,29.30,WSW,245,5.0,11.0,89,0.00,,,0.02,Wunderground v.1.15,2013-01-31 03:37:00,
2013-01-30 22:42:00,62.0,58.7,29.30,SSE,152,5.0,10.0,89,0.00,,,0.02,Wunderground v.1.15,2013-01-31 03:42:00,
2013-01-30 22:47:00,62.1,58.5,29.29,SSW,198,4.0,12.0,88,0.00,,,0.02,Wunderground v.1.15,2013-01-31 03:47:00,
2013-01-30 22:52:00,62.1,58.5,29.29,SW,225,3.0,13.0,88,0.00,,,0.02,Wunderground v.1.15,2013-01-31 03:52:00,
2013-01-30 22:57:00,62.2,58.6,29.28,SSW,194,6.0,17.0,88,0.00,,,0.02,Wunderground v.1.15,2013-01-31 03:57:00,
2013-01-30 23:02:00,62.1,58.5,29.28,SW,214,5.0,12.0,88,0.00,,,0.02,Wunderground v.1.15,2013-01-31 04:02:00,
2013-01-30 23:07:00,62.0,58.7,29.28,SSW,195,4.0,12.0,89,0.00,,,0.02,Wunderground v.1.15,2013-01-31 04:07:00,
2013-01-30 23:12:00,61.8,58.5,29.28,SE,146,4.0,12.0,89,0.00,,,0.02,Wunderground v.1.15,2013-01-31 04:12:00,
2013-01-30 23:17:00,61.7,58.4,29.27,SSE,154,4.0,16.0,89,0.00,,,0.02,Wunderground v.1.15,2013-01-31 04:17:00,
2013-01-30 23:22:00,61.7,58.7,29.27,South,174,8.0,13.0,90,0.00,,,0.02,Wunderground v.1.15,2013-01-31 04:22:00,
2013-01-30 23:27:00,61.6,58.6,29.26,West,268,5.0,13.0,90,0.00,,,0.02,Wunderground v.1.15,2013-01-31 04:27:00,
2013-01-30 23:32:00,61.5,58.5,29.25,West,268,3.0,12.0,90,0.00,,,0.02,Wunderground v.1.15,2013-01-31 04:32:00,
2013-01-30 23:37:00,61.3,58.7,29.25,SSW,193,6.0,13.0,91,0.00,,,0.02,Wunderground v.1.15,2013-01-31 04:37:00,
2013-01-30 23:42:00,61.3,58.7,29.25,WSW,237,6.0,17.0,91,0.00,,,0.02,Wunderground v.1.15,2013-01-31 04:42:00,
2013-01-30 23:47:00,61.4,58.7,29.25,South,187,3.0,17.0,91,0.00,,,0.02,Wunderground v.1.15,2013-01-31 04:47:00,
2013-01-30 23:52:00,61.4,59.1,29.24,South,170,9.0,15.0,92,0.00,,,0.02,Wunderground v.1.15,2013-01-31 04:52:00,
2013-01-30 23:57:00,61.2,58.9,29.24,WNW,288,4.0,15.0,92,0.00,,,0.03,Wunderground v.1.15,2013-01-31 04:57:00,